Arica, Chile

7:30 AM CLST on August 28, 2016 (GMT -0300)
Chacalluta International | | Change Station

Elev 190 ft 18.35 °S, 70.34 °W | Updated 30 minutes ago

Overcast
Overcast
63 °F
Feels Like 63 °F
N
5
Wind Variable Wind from SW

Today
High -- | Low -- °F
--% Chance of Precip.
Yesterday
High -- | Low -- °F
Precip. -- in
Pressure 30.04 in
Visibility 5.6 miles
Clouds Overcast 2600 ft
Dew Point 57 °F
Humidity 82%
Rainfall 0.00 in
Snow Depth Not available.
7:51 AM 7:33 PM
Waning Crescent, 16% visible
METAR SCAR 281000Z 23004KT 9000 OVC026 17/14 Q1017
Pressure 30.04 in
Visibility 5.6 miles
Clouds Overcast 2600 ft
Dew Point 57 °F
Humidity 82%
Rainfall 0.00 in
Snow Depth Not available.
7:51 AM 7:33 PM
Waning Crescent, 16% visible
METAR SCAR 281000Z 23004KT 9000 OVC026 17/14 Q1017

10-Day Weather Forecast

No radar image for this location.
×

Almanac

Astronomy

Aug. 28, 2016 Rise Set
Actual Time
Civil Twilight
Nautical Twilight
Astronomical Twilight
Moon
Length of Visible Light
Length of Day
Tomorrow will be .
, % of the Moon is Illuminated

Today's Extremes

Country Highs Country Lows

Community

WunderPhotos

Upload Photos

1,935,541 photos uploaded!

WunderBlog® & News

Nearby

Air Quality

  Air Quality AQ Index Pollutant
Not available.

Snow Depth

Station Depth Elevation

Earthquake Activity

City Distance Mag. Time & Date
Minimum magnitude displayed is 2.5.

Coastal Water Temperatures

Place Temperature

Stations

Nearby Weather Stations

Station Location Temp. Windchill Dew Point Humidity Wind Precip. Elev Updated Type